Time,TemperatureF,DewpointF,PressureIn,WindDirection,WindDirectionDegrees,WindSpeedMPH,WindSpeedGustMPH,Humidity,HourlyPrecipIn,Conditions,Clouds,dailyrainin,SoftwareType,DateUTC
2013-03-27 07:41:00,35.8,13.3,29.94,West,261,9.3,9.3,39,0.00,,---,0.00,VWS V14.01,2013-03-27 11:41:00,
2013-03-27 07:42:00,35.8,13.3,29.94,WNW,286,5.7,9.3,39,0.00,,---,0.00,VWS V14.01,2013-03-27 11:42:00,
2013-03-27 07:43:00,35.8,13.3,29.94,WNW,283,9.3,9.3,39,0.00,,---,0.00,VWS V14.01,2013-03-27 11:43:00,
2013-03-27 07:48:00,36.0,13.4,29.94,West,278,5.0,9.3,39,0.00,,---,0.00,VWS V14.01,2013-03-27 11:48:00,
2013-03-27 07:53:00,36.1,13.6,29.94,WSW,254,16.8,16.8,39,0.00,,---,0.00,VWS V14.01,2013-03-27 11:53:00,
2013-03-27 07:59:00,36.5,13.9,29.94,West,277,8.6,8.6,39,0.00,,---,0.00,VWS V14.01,2013-03-27 11:59:00,
2013-03-27 08:05:00,36.9,14.2,29.94,West,266,8.6,10.0,39,0.00,,---,0.00,VWS V14.01,2013-03-27 12:05:00,
2013-03-27 08:11:00,37.2,14.6,29.94,WSW,243,12.9,12.9,39,0.00,,---,0.00,VWS V14.01,2013-03-27 12:11:00,
2013-03-27 08:16:00,37.6,14.9,29.94,West,272,6.4,9.3,39,0.00,,---,0.00,VWS V14.01,2013-03-27 12:16:00,
2013-03-27 08:22:00,37.9,15.2,29.94,West,276,21.1,21.1,39,0.00,,---,0.00,VWS V14.01,2013-03-27 12:22:00,
2013-03-27 08:28:00,38.5,15.7,29.94,West,265,10.0,14.0,39,0.00,,---,0.00,VWS V14.01,2013-03-27 12:28:00,
2013-03-27 08:34:00,38.8,16.0,29.94,West,277,8.6,13.2,39,0.00,,---,0.00,VWS V14.01,2013-03-27 12:34:00,
2013-03-27 08:40:00,39.4,15.9,29.94,West,279,14.0,16.1,38,0.00,,---,0.00,VWS V14.01,2013-03-27 12:40:00,
2013-03-27 08:45:00,39.7,16.2,29.94,West,279,5.7,14.0,38,0.00,,---,0.00,VWS V14.01,2013-03-27 12:45:00,
2013-03-27 08:50:00,40.1,16.5,29.94,West,267,10.0,15.4,38,0.00,,---,0.00,VWS V14.01,2013-03-27 12:50:00,
2013-03-27 08:55:00,40.5,16.9,29.94,WNW,284,8.6,13.2,38,0.00,,---,0.00,VWS V14.01,2013-03-27 12:55:00,
2013-03-27 09:02:00,41.0,17.4,29.94,WNW,297,9.3,9.3,38,0.00,,---,0.00,VWS V14.01,2013-03-27 13:02:00,
2013-03-27 09:07:00,41.4,17.1,29.94,WNW,297,10.0,12.9,37,0.00,,---,0.00,VWS V14.01,2013-03-27 13:07:00,
2013-03-27 09:13:00,41.7,16.8,29.94,WSW,243,4.3,17.5,36,0.00,,---,0.00,VWS V14.01,2013-03-27 13:13:00,
2013-03-27 09:18:00,42.1,16.4,29.94,West,274,13.2,13.2,35,0.00,,---,0.00,VWS V14.01,2013-03-27 13:18:00,
2013-03-27 09:23:00,42.4,16.7,29.94,WNW,290,16.8,16.8,35,0.00,,---,0.00,VWS V14.01,2013-03-27 13:23:00,
2013-03-27 09:29:00,42.8,15.7,29.94,WNW,282,12.9,12.9,33,0.00,,---,0.00,VWS V14.01,2013-03-27 13:29:00,
2013-03-27 09:34:00,43.0,15.9,29.94,WSW,254,5.0,8.6,33,0.00,,---,0.00,VWS V14.01,2013-03-27 13:34:00,
2013-03-27 09:39:00,43.5,16.3,29.94,West,278,6.4,10.0,33,0.00,,---,0.00,VWS V14.01,2013-03-27 13:39:00,
2013-03-27 09:44:00,43.7,15.8,29.94,West,270,13.2,13.2,32,0.00,,---,0.00,VWS V14.01,2013-03-27 13:44:00,
2013-03-27 09:50:00,44.1,15.4,29.94,WNW,297,12.9,14.0,31,0.00,,---,0.00,VWS V14.01,2013-03-27 13:50:00,
2013-03-27 09:56:00,44.4,15.7,29.94,WNW,297,12.2,12.2,31,0.00,,---,0.00,VWS V14.01,2013-03-27 13:56:00,
2013-03-27 12:31:00,44.6,15.1,29.91,WNW,286,9.3,10.0,30,0.00,,---,0.00,VWS V14.01,2013-03-27 16:31:00,
2013-03-27 12:37:00,44.6,15.1,29.91,WNW,286,9.3,9.3,30,0.00,,---,0.00,VWS V14.01,2013-03-27 16:37:00,
2013-03-27 12:42:00,44.6,15.1,29.91,WNW,286,9.3,9.3,30,0.00,,---,0.00,VWS V14.01,2013-03-27 16:42:00,
2013-03-27 12:48:00,51.6,16.0,29.91,WNW,286,9.3,9.3,24,0.00,,---,0.00,VWS V14.01,2013-03-27 16:48:00,
2013-03-27 12:53:00,51.6,16.0,29.91,WNW,295,4.3,4.3,24,0.00,,---,0.00,VWS V14.01,2013-03-27 16:53:00,
2013-03-27 12:59:00,51.6,16.0,29.91,WSW,247,9.3,9.3,24,0.00,,---,0.00,VWS V14.01,2013-03-27 16:59:00,
2013-03-27 13:05:00,51.6,16.0,29.91,WSW,247,9.3,9.3,24,0.00,,---,0.00,VWS V14.01,2013-03-27 17:05:00,
2013-03-27 13:10:00,51.6,16.0,29.91,West,261,7.9,7.9,24,0.00,,---,0.00,VWS V14.01,2013-03-27 17:10:00,
2013-03-27 13:16:00,52.3,13.6,29.91,West,280,17.5,17.5,21,0.00,,---,0.00,VWS V14.01,2013-03-27 17:16:00,
2013-03-27 13:22:00,52.3,13.6,29.91,West,273,16.8,16.8,21,0.00,,---,0.00,VWS V14.01,2013-03-27 17:22:00,
2013-03-27 13:28:00,50.9,12.4,29.91,West,275,16.8,16.8,21,0.00,,---,0.00,VWS V14.01,2013-03-27 17:28:00,
2013-03-27 18:40:00,50.2,11.8,29.94,West,268,12.9,12.9,21,0.00,,---,0.00,VWS V14.01,2013-03-27 22:40:00,
2013-03-27 18:47:00,49.8,11.5,29.94,West,260,10.7,16.1,21,0.00,,---,0.00,VWS V14.01,2013-03-27 22:47:00,
2013-03-27 18:52:00,49.3,11.0,29.91,West,279,8.6,16.1,21,0.00,,---,0.00,VWS V14.01,2013-03-27 22:52:00,
2013-03-27 18:57:00,48.7,10.6,29.91,West,261,13.2,21.1,21,0.00,,---,0.00,VWS V14.01,2013-03-27 22:57:00,
2013-03-27 19:02:00,48.2,13.1,29.91,NW,304,14.7,19.7,24,0.00,,---,0.00,VWS V14.01,2013-03-27 23:02:00,
2013-03-27 19:07:00,47.7,12.7,29.94,West,272,9.3,17.5,24,0.00,,---,0.00,VWS V14.01,2013-03-27 23:07:00,
2013-03-27 19:13:00,47.3,15.0,29.94,WNW,292,16.8,20.4,27,0.00,,---,0.00,VWS V14.01,2013-03-27 23:13:00,
2013-03-27 19:18:00,47.1,14.9,29.94,West,269,12.9,17.5,27,0.00,,---,0.00,VWS V14.01,2013-03-27 23:18:00,
2013-03-27 19:23:00,46.8,14.6,29.94,WSW,258,12.9,12.9,27,0.00,,---,0.00,VWS V14.01,2013-03-27 23:23:00,
2013-03-27 19:28:00,46.6,14.4,29.94,West,266,12.9,21.1,27,0.00,,---,0.00,VWS V14.01,2013-03-27 23:28:00,